sensor_id;sensor_type;location;lat;lon;timestamp;pressure;altitude;pressure_sealevel;temperature;humidity
23176;BME280;19910;42.652;23.332;2022-07-05T00:01:37;94722.50;;;21.56;46.04
23176;BME280;19910;42.652;23.332;2022-07-05T00:04:04;94726.44;;;21.51;45.73
23176;BME280;19910;42.652;23.332;2022-07-05T00:06:31;94714.63;;;21.44;45.96
23176;BME280;19910;42.652;23.332;2022-07-05T00:08:57;94720.16;;;21.44;45.81
23176;BME280;19910;42.652;23.332;2022-07-05T00:11:26;94716.59;;;21.54;45.45
23176;BME280;19910;42.652;23.332;2022-07-05T00:13:53;94730.34;;;21.47;46.21
23176;BME280;19910;42.652;23.332;2022-07-05T00:16:19;94718.56;;;21.36;46.84
23176;BME280;19910;42.652;23.332;2022-07-05T00:18:46;94714.63;;;21.30;46.76
23176;BME280;19910;42.652;23.332;2022-07-05T00:21:13;94725.63;;;21.15;47.38
23176;BME280;19910;42.652;23.332;2022-07-05T00:23:40;94719.72;;;21.13;47.55
23176;BME280;19910;42.652;23.332;2022-07-05T00:26:06;94712.22;;;21.03;47.86
23176;BME280;19910;42.652;23.332;2022-07-05T00:28:35;94707.88;;;21.09;48.45
23176;BME280;19910;42.652;23.332;2022-07-05T00:31:01;94714.56;;;21.08;48.33
23176;BME280;19910;42.652;23.332;2022-07-05T00:33:28;94712.22;;;20.96;48.99
23176;BME280;19910;42.652;23.332;2022-07-05T00:35:55;94715.75;;;20.86;49.93
23176;BME280;19910;42.652;23.332;2022-07-05T00:38:22;94723.19;;;20.82;50.13
23176;BME280;19910;42.652;23.332;2022-07-05T00:40:49;94717.31;;;20.76;50.60
23176;BME280;19910;42.652;23.332;2022-07-05T00:43:16;94713.34;;;20.81;49.81
23176;BME280;19910;42.652;23.332;2022-07-05T00:45:44;94710.59;;;20.74;50.20
23176;BME280;19910;42.652;23.332;2022-07-05T00:48:11;94716.84;;;20.56;49.77
23176;BME280;19910;42.652;23.332;2022-07-05T00:50:38;94713.31;;;20.60;49.64
23176;BME280;19910;42.652;23.332;2022-07-05T00:53:05;94715.28;;;20.48;51.79
23176;BME280;19910;42.652;23.332;2022-07-05T00:55:33;94708.94;;;20.44;49.97
23176;BME280;19910;42.652;23.332;2022-07-05T00:58:00;94707.75;;;20.38;51.09
23176;BME280;19910;42.652;23.332;2022-07-05T01:00:27;94704.19;;;20.34;51.15
23176;BME280;19910;42.652;23.332;2022-07-05T01:02:55;94699.47;;;20.38;50.50
23176;BME280;19910;42.652;23.332;2022-07-05T01:05:22;94708.03;;;20.15;51.13
23176;BME280;19910;42.652;23.332;2022-07-05T01:07:49;94708.78;;;20.12;52.27
23176;BME280;19910;42.652;23.332;2022-07-05T01:10:16;94716.66;;;20.07;53.73
23176;BME280;19910;42.652;23.332;2022-07-05T01:12:43;94716.22;;;20.05;55.20
23176;BME280;19910;42.652;23.332;2022-07-05T01:15:10;94722.16;;;20.07;55.94
23176;BME280;19910;42.652;23.332;2022-07-05T01:17:37;94726.84;;;20.03;56.50
23176;BME280;19910;42.652;23.332;2022-07-05T01:20:07;94725.97;;;19.88;58.34
23176;BME280;19910;42.652;23.332;2022-07-05T01:22:51;94732.16;;;19.74;59.98
23176;BME280;19910;42.652;23.332;2022-07-05T01:25:20;94733.03;;;19.89;59.63
23176;BME280;19910;42.652;23.332;2022-07-05T01:27:47;94732.16;;;19.74;60.26
23176;BME280;19910;42.652;23.332;2022-07-05T01:30:14;94743.88;;;19.64;61.15
23176;BME280;19910;42.652;23.332;2022-07-05T01:32:42;94749.72;;;19.59;62.17
23176;BME280;19910;42.652;23.332;2022-07-05T01:35:09;94752.50;;;19.63;61.71
23176;BME280;19910;42.652;23.332;2022-07-05T01:37:37;94752.50;;;19.63;62.03
23176;BME280;19910;42.652;23.332;2022-07-05T01:40:06;94750.13;;;19.61;62.54
23176;BME280;19910;42.652;23.332;2022-07-05T01:42:33;94742.66;;;19.58;62.42
23176;BME280;19910;42.652;23.332;2022-07-05T01:45:00;94740.59;;;19.48;62.84
23176;BME280;19910;42.652;23.332;2022-07-05T01:47:27;94735.84;;;19.45;62.43
23176;BME280;19910;42.652;23.332;2022-07-05T01:49:57;94731.94;;;19.46;62.52
23176;BME280;19910;42.652;23.332;2022-07-05T01:52:24;94732.03;;;19.53;62.04
23176;BME280;19910;42.652;23.332;2022-07-05T01:54:54;94725.63;;;19.42;61.91
23176;BME280;19910;42.652;23.332;2022-07-05T01:57:22;94733.97;;;19.49;61.57
23176;BME280;19910;42.652;23.332;2022-07-05T01:59:50;94728.88;;;19.55;61.50
23176;BME280;19910;42.652;23.332;2022-07-05T02:02:16;94727.41;;;19.64;62.13
23176;BME280;19910;42.652;23.332;2022-07-05T02:04:43;94737.63;;;19.67;60.70
23176;BME280;19910;42.652;23.332;2022-07-05T02:07:10;94724.25;;;19.62;61.05
23176;BME280;19910;42.652;23.332;2022-07-05T02:09:37;94735.94;;;19.52;61.25
23176;BME280;19910;42.652;23.332;2022-07-05T02:12:05;94731.25;;;19.52;61.38
23176;BME280;19910;42.652;23.332;2022-07-05T02:14:34;94723.44;;;19.62;61.61
23176;BME280;19910;42.652;23.332;2022-07-05T02:17:01;94718.78;;;19.69;61.27
23176;BME280;19910;42.652;23.332;2022-07-05T02:19:28;94727.44;;;19.68;61.51
23176;BME280;19910;42.652;23.332;2022-07-05T02:21:55;94732.69;;;19.43;62.51
23176;BME280;19910;42.652;23.332;2022-07-05T02:24:22;94736.59;;;19.42;62.62
23176;BME280;19910;42.652;23.332;2022-07-05T02:26:50;94732.78;;;19.50;62.26
23176;BME280;19910;42.652;23.332;2022-07-05T02:29:17;94736.81;;;19.63;61.92
23176;BME280;19910;42.652;23.332;2022-07-05T02:31:45;94746.19;;;19.59;62.96
23176;BME280;19910;42.652;23.332;2022-07-05T02:34:12;94746.16;;;19.55;63.18
23176;BME280;19910;42.652;23.332;2022-07-05T02:36:39;94753.22;;;19.52;62.49
23176;BME280;19910;42.652;23.332;2022-07-05T02:39:05;94746.97;;;19.59;62.70
23176;BME280;19910;42.652;23.332;2022-07-05T02:41:32;94750.47;;;19.52;63.54
23176;BME280;19910;42.652;23.332;2022-07-05T02:43:59;94755.38;;;19.33;64.01
23176;BME280;19910;42.652;23.332;2022-07-05T02:46:26;94760.75;;;19.18;64.16
23176;BME280;19910;42.652;23.332;2022-07-05T02:48:54;94768.63;;;19.20;63.73
23176;BME280;19910;42.652;23.332;2022-07-05T02:51:21;94759.25;;;19.28;63.03
23176;BME280;19910;42.652;23.332;2022-07-05T02:53:48;94767.16;;;19.33;63.45
23176;BME280;19910;42.652;23.332;2022-07-05T02:56:14;94757.38;;;19.36;65.61
23176;BME280;19910;42.652;23.332;2022-07-05T02:58:41;94758.34;;;19.13;65.02
23176;BME280;19910;42.652;23.332;2022-07-05T03:01:08;94763.47;;;19.15;64.78
23176;BME280;19910;42.652;23.332;2022-07-05T03:03:35;94767.09;;;19.23;65.28
23176;BME280;19910;42.652;23.332;2022-07-05T03:06:03;94763.16;;;19.24;64.27
23176;BME280;19910;42.652;23.332;2022-07-05T03:08:30;94756.25;;;19.44;63.32
23176;BME280;19910;42.652;23.332;2022-07-05T03:10:56;94765.22;;;19.85;62.21
23176;BME280;19910;42.652;23.332;2022-07-05T03:13:23;94761.19;;;20.34;60.88
23176;BME280;19910;42.652;23.332;2022-07-05T03:15:50;94757.06;;;20.86;59.23
23176;BME280;19910;42.652;23.332;2022-07-05T03:18:17;94752.84;;;21.45;57.23
23176;BME280;19910;42.652;23.332;2022-07-05T03:20:44;94743.72;;;22.05;56.98
23176;BME280;19910;42.652;23.332;2022-07-05T03:23:12;94742.78;;;22.44;56.48
23176;BME280;19910;42.652;23.332;2022-07-05T03:25:39;94742.22;;;22.88;54.64
23176;BME280;19910;42.652;23.332;2022-07-05T03:28:06;94743.91;;;23.33;53.10
23176;BME280;19910;42.652;23.332;2022-07-05T03:30:32;94742.34;;;23.81;52.46
23176;BME280;19910;42.652;23.332;2022-07-05T03:32:59;94738.81;;;24.18;51.64
23176;BME280;19910;42.652;23.332;2022-07-05T03:35:26;94732.69;;;24.67;50.27
23176;BME280;19910;42.652;23.332;2022-07-05T03:37:53;94724.88;;;25.20;48.77
23176;BME280;19910;42.652;23.332;2022-07-05T03:40:21;94722.44;;;25.48;47.47
23176;BME280;19910;42.652;23.332;2022-07-05T03:42:48;94722.06;;;25.73;47.07
23176;BME280;19910;42.652;23.332;2022-07-05T03:45:15;94731.56;;;26.19;45.84
23176;BME280;19910;42.652;23.332;2022-07-05T03:47:42;94716.06;;;26.41;45.55
23176;BME280;19910;42.652;23.332;2022-07-05T03:50:09;94719.22;;;26.79;44.39
23176;BME280;19910;42.652;23.332;2022-07-05T03:52:36;94708.78;;;27.55;43.00
23176;BME280;19910;42.652;23.332;2022-07-05T03:55:03;94712.44;;;28.01;42.18
23176;BME280;19910;42.652;23.332;2022-07-05T03:57:31;94707.66;;;28.02;41.75
23176;BME280;19910;42.652;23.332;2022-07-05T03:59:58;94715.91;;;28.50;40.76
23176;BME280;19910;42.652;23.332;2022-07-05T04:02:25;94707.25;;;29.53;39.62
23176;BME280;19910;42.652;23.332;2022-07-05T04:04:52;94702.78;;;29.43;38.67
23176;BME280;19910;42.652;23.332;2022-07-05T04:07:18;94710.78;;;29.28;38.64
23176;BME280;19910;42.652;23.332;2022-07-05T04:09:45;94715.25;;;29.00;39.07
23176;BME280;19910;42.652;23.332;2022-07-05T04:12:12;94709.78;;;29.73;38.02
23176;BME280;19910;42.652;23.332;2022-07-05T04:14:40;94713.66;;;30.01;38.04
23176;BME280;19910;42.652;23.332;2022-07-05T04:17:07;94711.63;;;30.14;37.32
23176;BME280;19910;42.652;23.332;2022-07-05T04:19:34;94706.59;;;30.44;36.82
23176;BME280;19910;42.652;23.332;2022-07-05T04:22:01;94706.13;;;31.11;34.96
23176;BME280;19910;42.652;23.332;2022-07-05T04:24:27;94708.09;;;31.32;34.74
23176;BME280;19910;42.652;23.332;2022-07-05T04:26:54;94709.09;;;30.85;34.64
23176;BME280;19910;42.652;23.332;2022-07-05T04:29:21;94713.97;;;31.03;34.65
23176;BME280;19910;42.652;23.332;2022-07-05T04:31:49;94706.09;;;31.72;33.94
23176;BME280;19910;42.652;23.332;2022-07-05T04:34:16;94715.44;;;30.64;34.41
23176;BME280;19910;42.652;23.332;2022-07-05T04:36:43;94714.91;;;29.87;35.92
23176;BME280;19910;42.652;23.332;2022-07-05T04:39:10;94719.38;;;28.09;38.30
23176;BME280;19910;42.652;23.332;2022-07-05T04:41:36;94719.97;;;28.17;38.53
23176;BME280;19910;42.652;23.332;2022-07-05T04:44:03;94721.03;;;28.81;37.83
23176;BME280;19910;42.652;23.332;2022-07-05T04:46:30;94715.84;;;29.46;35.70
23176;BME280;19910;42.652;23.332;2022-07-05T04:48:59;94712.59;;;30.77;34.52
23176;BME280;19910;42.652;23.332;2022-07-05T04:51:25;94708.09;;;30.79;34.44
23176;BME280;19910;42.652;23.332;2022-07-05T04:53:52;94705.34;;;31.41;33.48
23176;BME280;19910;42.652;23.332;2022-07-05T04:56:21;94712.13;;;32.29;31.76
23176;BME280;19910;42.652;23.332;2022-07-05T04:58:48;94715.41;;;32.82;31.02
23176;BME280;19910;42.652;23.332;2022-07-05T05:01:14;94719.13;;;33.07;30.63
23176;BME280;19910;42.652;23.332;2022-07-05T05:03:41;94718.91;;;33.19;30.75
23176;BME280;19910;42.652;23.332;2022-07-05T05:06:09;94715.91;;;33.41;30.67
23176;BME280;19910;42.652;23.332;2022-07-05T05:08:36;94726.31;;;32.44;31.29
23176;BME280;19910;42.652;23.332;2022-07-05T05:11:03;94706.19;;;34.08;29.14
23176;BME280;19910;42.652;23.332;2022-07-05T05:13:31;94718.28;;;33.76;29.68
23176;BME280;19910;42.652;23.332;2022-07-05T05:15:57;94718.44;;;34.29;29.50
23176;BME280;19910;42.652;23.332;2022-07-05T05:18:24;94720.44;;;34.91;29.44
23176;BME280;19910;42.652;23.332;2022-07-05T05:20:52;94717.06;;;35.46;28.13
23176;BME280;19910;42.652;23.332;2022-07-05T05:23:20;94724.38;;;36.22;27.00
23176;BME280;19910;42.652;23.332;2022-07-05T05:25:47;94714.84;;;36.20;27.70
23176;BME280;19910;42.652;23.332;2022-07-05T05:28:14;94717.31;;;36.12;26.51
23176;BME280;19910;42.652;23.332;2022-07-05T05:30:41;94726.09;;;36.35;26.50
23176;BME280;19910;42.652;23.332;2022-07-05T05:33:08;94723.56;;;36.02;26.42
23176;BME280;19910;42.652;23.332;2022-07-05T05:35:35;94713.03;;;35.82;26.98
23176;BME280;19910;42.652;23.332;2022-07-05T05:38:02;94715.34;;;36.39;26.15
23176;BME280;19910;42.652;23.332;2022-07-05T05:40:30;94707.81;;;36.50;25.98
23176;BME280;19910;42.652;23.332;2022-07-05T05:42:58;94712.31;;;36.22;26.13
23176;BME280;19910;42.652;23.332;2022-07-05T05:45:25;94712.78;;;36.35;25.91
23176;BME280;19910;42.652;23.332;2022-07-05T05:47:54;94718.06;;;36.94;26.05
23176;BME280;19910;42.652;23.332;2022-07-05T05:50:22;94721.00;;;37.05;25.50
23176;BME280;19910;42.652;23.332;2022-07-05T05:52:50;94719.50;;;35.38;27.17
23176;BME280;19910;42.652;23.332;2022-07-05T05:55:17;94728.28;;;33.68;29.18
23176;BME280;19910;42.652;23.332;2022-07-05T05:57:45;94723.75;;;35.19;27.41
23176;BME280;19910;42.652;23.332;2022-07-05T06:00:13;94714.25;;;35.95;27.42
23176;BME280;19910;42.652;23.332;2022-07-05T06:02:41;94725.94;;;36.23;27.52
23176;BME280;19910;42.652;23.332;2022-07-05T06:05:08;94734.25;;;35.48;27.39
23176;BME280;19910;42.652;23.332;2022-07-05T06:07:45;94732.31;;;34.95;28.38
23176;BME280;19910;42.652;23.332;2022-07-05T06:10:15;94739.69;;;33.13;30.81
23176;BME280;19910;42.652;23.332;2022-07-05T06:12:45;94739.50;;;32.07;32.65
23176;BME280;19910;42.652;23.332;2022-07-05T06:15:12;94739.88;;;32.36;32.30
23176;BME280;19910;42.652;23.332;2022-07-05T06:17:42;94742.38;;;32.34;31.89
23176;BME280;19910;42.652;23.332;2022-07-05T06:20:10;94749.84;;;31.39;33.76
23176;BME280;19910;42.652;23.332;2022-07-05T06:22:40;94743.69;;;31.00;34.75
23176;BME280;19910;42.652;23.332;2022-07-05T06:25:10;94735.00;;;33.10;31.47
23176;BME280;19910;42.652;23.332;2022-07-05T06:27:40;94741.59;;;32.52;31.57
23176;BME280;19910;42.652;23.332;2022-07-05T06:30:10;94742.25;;;31.89;32.98
23176;BME280;19910;42.652;23.332;2022-07-05T06:32:37;94752.16;;;32.30;31.98
23176;BME280;19910;42.652;23.332;2022-07-05T06:35:07;94747.66;;;32.60;31.86
23176;BME280;19910;42.652;23.332;2022-07-05T06:37:42;94739.88;;;33.94;30.12
23176;BME280;19910;42.652;23.332;2022-07-05T06:40:11;94728.75;;;35.39;28.37
23176;BME280;19910;42.652;23.332;2022-07-05T06:42:38;94725.94;;;35.39;27.90
23176;BME280;19910;42.652;23.332;2022-07-05T06:45:09;94726.75;;;35.01;27.93
23176;BME280;19910;42.652;23.332;2022-07-05T06:47:37;94725.81;;;35.33;28.22
23176;BME280;19910;42.652;23.332;2022-07-05T06:50:07;94728.00;;;37.10;26.21
23176;BME280;19910;42.652;23.332;2022-07-05T06:52:34;94714.34;;;37.28;26.13
23176;BME280;19910;42.652;23.332;2022-07-05T06:55:05;94722.03;;;37.02;25.52
23176;BME280;19910;42.652;23.332;2022-07-05T06:57:32;94720.44;;;37.53;25.87
23176;BME280;19910;42.652;23.332;2022-07-05T06:59:59;94710.78;;;38.02;26.05
23176;BME280;19910;42.652;23.332;2022-07-05T07:02:28;94715.06;;;37.55;25.93
23176;BME280;19910;42.652;23.332;2022-07-05T07:04:54;94707.63;;;37.00;25.79
23176;BME280;19910;42.652;23.332;2022-07-05T07:07:21;94712.41;;;35.28;28.41
23176;BME280;19910;42.652;23.332;2022-07-05T07:10:06;94700.97;;;36.57;28.40
23176;BME280;19910;42.652;23.332;2022-07-05T07:12:35;94713.66;;;36.87;27.00
23176;BME280;19910;42.652;23.332;2022-07-05T07:15:01;94705.47;;;38.10;25.29
23176;BME280;19910;42.652;23.332;2022-07-05T07:17:30;94714.66;;;38.04;25.67
23176;BME280;19910;42.652;23.332;2022-07-05T07:19:57;94718.63;;;37.50;26.59
23176;BME280;19910;42.652;23.332;2022-07-05T07:22:23;94716.38;;;37.02;26.19
23176;BME280;19910;42.652;23.332;2022-07-05T07:24:50;94721.84;;;37.11;27.26
23176;BME280;19910;42.652;23.332;2022-07-05T07:27:20;94724.94;;;36.87;27.53
23176;BME280;19910;42.652;23.332;2022-07-05T07:29:46;94727.84;;;37.76;26.87
23176;BME280;19910;42.652;23.332;2022-07-05T07:32:13;94720.81;;;37.97;25.61
23176;BME280;19910;42.652;23.332;2022-07-05T07:34:41;94722.63;;;36.86;27.30
23176;BME280;19910;42.652;23.332;2022-07-05T07:37:08;94716.19;;;37.11;26.46
23176;BME280;19910;42.652;23.332;2022-07-05T07:39:38;94719.19;;;36.01;28.18
23176;BME280;19910;42.652;23.332;2022-07-05T07:42:06;94704.63;;;37.09;27.29
23176;BME280;19910;42.652;23.332;2022-07-05T07:44:33;94712.31;;;36.83;27.39
23176;BME280;19910;42.652;23.332;2022-07-05T07:47:00;94704.84;;;37.31;26.99
23176;BME280;19910;42.652;23.332;2022-07-05T07:49:27;94708.94;;;37.05;27.96
23176;BME280;19910;42.652;23.332;2022-07-05T07:51:55;94706.59;;;36.57;27.89
23176;BME280;19910;42.652;23.332;2022-07-05T07:54:22;94716.75;;;34.85;29.71
23176;BME280;19910;42.652;23.332;2022-07-05T07:56:49;94716.19;;;35.10;29.46
23176;BME280;19910;42.652;23.332;2022-07-05T07:59:16;94710.06;;;34.58;29.96
23176;BME280;19910;42.652;23.332;2022-07-05T08:01:42;94712.69;;;35.15;29.34
23176;BME280;19910;42.652;23.332;2022-07-05T08:04:09;94708.59;;;35.60;29.87
23176;BME280;19910;42.652;23.332;2022-07-05T08:06:37;94706.59;;;35.81;29.37
23176;BME280;19910;42.652;23.332;2022-07-05T08:09:05;94712.06;;;35.70;29.70
23176;BME280;19910;42.652;23.332;2022-07-05T08:11:31;94716.66;;;35.23;29.37
23176;BME280;19910;42.652;23.332;2022-07-05T08:13:58;94720.56;;;35.11;29.28
23176;BME280;19910;42.652;23.332;2022-07-05T08:16:25;94716.22;;;33.76;30.73
23176;BME280;19910;42.652;23.332;2022-07-05T08:18:52;94706.50;;;32.84;31.86
23176;BME280;19910;42.652;23.332;2022-07-05T08:21:36;94703.16;;;34.21;31.15
23176;BME280;19910;42.652;23.332;2022-07-05T08:24:07;94707.53;;;34.61;31.63
23176;BME280;19910;42.652;23.332;2022-07-05T08:26:34;94702.47;;;34.50;30.66
23176;BME280;19910;42.652;23.332;2022-07-05T08:29:03;94710.63;;;33.34;31.09
23176;BME280;19910;42.652;23.332;2022-07-05T08:31:31;94705.56;;;32.87;32.59
23176;BME280;19910;42.652;23.332;2022-07-05T08:33:59;94709.91;;;32.97;32.56
23176;BME280;19910;42.652;23.332;2022-07-05T08:36:26;94695.38;;;34.16;31.68
23176;BME280;19910;42.652;23.332;2022-07-05T08:38:52;94686.34;;;33.88;31.73
23176;BME280;19910;42.652;23.332;2022-07-05T08:41:22;94695.16;;;32.33;32.64
23176;BME280;19910;42.652;23.332;2022-07-05T08:43:50;94692.03;;;32.31;33.87
23176;BME280;19910;42.652;23.332;2022-07-05T08:46:18;94690.22;;;33.25;32.21
23176;BME280;19910;42.652;23.332;2022-07-05T08:48:48;94697.47;;;32.43;33.45
23176;BME280;19910;42.652;23.332;2022-07-05T08:51:16;94695.25;;;32.02;33.45
23176;BME280;19910;42.652;23.332;2022-07-05T08:53:44;94692.16;;;32.09;33.55
23176;BME280;19910;42.652;23.332;2022-07-05T08:56:13;94694.31;;;32.14;33.41
23176;BME280;19910;42.652;23.332;2022-07-05T08:58:41;94680.63;;;32.71;33.14
23176;BME280;19910;42.652;23.332;2022-07-05T09:01:10;94684.34;;;32.13;33.45
23176;BME280;19910;42.652;23.332;2022-07-05T09:03:39;94684.19;;;31.89;35.37
23176;BME280;19910;42.652;23.332;2022-07-05T09:06:08;94680.94;;;32.55;32.77
23176;BME280;19910;42.652;23.332;2022-07-05T09:08:37;94671.22;;;33.01;33.10
23176;BME280;19910;42.652;23.332;2022-07-05T09:11:06;94658.41;;;33.84;31.73
23176;BME280;19910;42.652;23.332;2022-07-05T09:13:35;94669.06;;;32.96;34.28
23176;BME280;19910;42.652;23.332;2022-07-05T09:16:04;94669.41;;;32.89;33.60
23176;BME280;19910;42.652;23.332;2022-07-05T09:18:41;94653.44;;;32.95;33.00
23176;BME280;19910;42.652;23.332;2022-07-05T09:21:13;94656.97;;;32.44;33.08
23176;BME280;19910;42.652;23.332;2022-07-05T09:23:40;94642.91;;;33.23;31.92
23176;BME280;19910;42.652;23.332;2022-07-05T09:26:08;94659.09;;;32.86;32.18
23176;BME280;19910;42.652;23.332;2022-07-05T09:28:35;94651.19;;;32.66;33.76
23176;BME280;19910;42.652;23.332;2022-07-05T09:31:04;94639.66;;;33.25;32.40
23176;BME280;19910;42.652;23.332;2022-07-05T09:33:30;94640.75;;;32.76;32.64
23176;BME280;19910;42.652;23.332;2022-07-05T09:35:57;94644.81;;;32.11;32.73
23176;BME280;19910;42.652;23.332;2022-07-05T09:38:25;94647.75;;;32.53;33.26
23176;BME280;19910;42.652;23.332;2022-07-05T09:40:53;94643.16;;;33.01;32.64
23176;BME280;19910;42.652;23.332;2022-07-05T09:43:22;94626.59;;;33.78;31.32
23176;BME280;19910;42.652;23.332;2022-07-05T09:45:54;94639.00;;;32.88;32.13
23176;BME280;19910;42.652;23.332;2022-07-05T09:48:22;94636.56;;;32.35;32.92
23176;BME280;19910;42.652;23.332;2022-07-05T09:50:49;94628.28;;;32.04;34.08
23176;BME280;19910;42.652;23.332;2022-07-05T09:53:17;94636.06;;;31.91;34.48
23176;BME280;19910;42.652;23.332;2022-07-05T09:56:00;94629.53;;;31.94;35.67
23176;BME280;19910;42.652;23.332;2022-07-05T09:58:27;94623.94;;;32.48;34.90
23176;BME280;19910;42.652;23.332;2022-07-05T10:00:54;94617.50;;;33.17;33.41
23176;BME280;19910;42.652;23.332;2022-07-05T10:03:23;94617.97;;;32.65;33.67
23176;BME280;19910;42.652;23.332;2022-07-05T10:05:49;94619.25;;;32.45;35.18
23176;BME280;19910;42.652;23.332;2022-07-05T10:08:16;94612.09;;;32.44;34.29
23176;BME280;19910;42.652;23.332;2022-07-05T10:10:46;94608.69;;;32.31;35.03
23176;BME280;19910;42.652;23.332;2022-07-05T10:13:14;94608.06;;;32.09;34.93
23176;BME280;19910;42.652;23.332;2022-07-05T10:15:42;94615.38;;;32.34;36.52
23176;BME280;19910;42.652;23.332;2022-07-05T10:18:12;94609.25;;;32.72;34.60
23176;BME280;19910;42.652;23.332;2022-07-05T10:20:42;94602.97;;;32.86;34.74
23176;BME280;19910;42.652;23.332;2022-07-05T10:23:11;94591.63;;;33.13;34.41
23176;BME280;19910;42.652;23.332;2022-07-05T10:25:39;94593.13;;;33.24;33.77
23176;BME280;19910;42.652;23.332;2022-07-05T10:28:07;94581.78;;;33.51;33.94
23176;BME280;19910;42.652;23.332;2022-07-05T10:30:35;94574.06;;;33.37;34.29
23176;BME280;19910;42.652;23.332;2022-07-05T10:33:04;94580.78;;;32.97;34.10
23176;BME280;19910;42.652;23.332;2022-07-05T10:35:31;94587.63;;;33.05;34.43
23176;BME280;19910;42.652;23.332;2022-07-05T10:38:01;94577.53;;;33.32;33.78
23176;BME280;19910;42.652;23.332;2022-07-05T10:40:28;94576.09;;;33.60;33.90
23176;BME280;19910;42.652;23.332;2022-07-05T10:43:00;94571.25;;;34.23;33.92
23176;BME280;19910;42.652;23.332;2022-07-05T10:45:30;94573.09;;;33.40;33.41
23176;BME280;19910;42.652;23.332;2022-07-05T10:48:18;94569.22;;;33.04;33.79
23176;BME280;19910;42.652;23.332;2022-07-05T10:50:49;94563.84;;;33.15;34.19
23176;BME280;19910;42.652;23.332;2022-07-05T10:53:19;94564.13;;;32.94;34.00
23176;BME280;19910;42.652;23.332;2022-07-05T10:55:56;94572.41;;;32.88;35.80
23176;BME280;19910;42.652;23.332;2022-07-05T10:58:30;94564.75;;;33.31;33.41
23176;BME280;19910;42.652;23.332;2022-07-05T11:04:28;94555.91;;;33.47;32.72
23176;BME280;19910;42.652;23.332;2022-07-05T11:06:59;94559.91;;;33.79;31.22
23176;BME280;19910;42.652;23.332;2022-07-05T11:09:28;94551.69;;;34.29;32.08
23176;BME280;19910;42.652;23.332;2022-07-05T11:12:08;94548.25;;;34.10;31.87
23176;BME280;19910;42.652;23.332;2022-07-05T11:14:45;94546.53;;;33.65;31.23
23176;BME280;19910;42.652;23.332;2022-07-05T11:17:18;94542.38;;;34.37;31.05
23176;BME280;19910;42.652;23.332;2022-07-05T11:20:17;94546.91;;;33.81;33.36
23176;BME280;19910;42.652;23.332;2022-07-05T11:23:02;94553.38;;;32.83;34.33
23176;BME280;19910;42.652;23.332;2022-07-05T11:25:33;94545.28;;;32.85;34.66
23176;BME280;19910;42.652;23.332;2022-07-05T11:28:18;94535.69;;;33.34;33.38
23176;BME280;19910;42.652;23.332;2022-07-05T11:30:53;94547.44;;;32.90;33.16
23176;BME280;19910;42.652;23.332;2022-07-05T11:33:40;94544.16;;;33.25;34.17
23176;BME280;19910;42.652;23.332;2022-07-05T11:36:20;94543.97;;;32.95;32.87
23176;BME280;19910;42.652;23.332;2022-07-05T11:39:11;94551.69;;;32.25;34.23
23176;BME280;19910;42.652;23.332;2022-07-05T11:41:44;94537.03;;;32.21;35.09
23176;BME280;19910;42.652;23.332;2022-07-05T11:44:11;94537.66;;;32.25;33.76
23176;BME280;19910;42.652;23.332;2022-07-05T11:46:40;94528.69;;;32.96;33.46
23176;BME280;19910;42.652;23.332;2022-07-05T11:49:07;94522.63;;;33.69;32.21
23176;BME280;19910;42.652;23.332;2022-07-05T11:51:34;94524.13;;;33.79;31.43
23176;BME280;19910;42.652;23.332;2022-07-05T11:54:02;94517.91;;;34.14;32.34
23176;BME280;19910;42.652;23.332;2022-07-05T11:56:31;94516.72;;;34.20;31.60
23176;BME280;19910;42.652;23.332;2022-07-05T11:58:59;94502.31;;;34.42;30.90
23176;BME280;19910;42.652;23.332;2022-07-05T12:01:26;94505.00;;;34.66;30.67
23176;BME280;19910;42.652;23.332;2022-07-05T12:03:53;94506.75;;;34.34;31.22
23176;BME280;19910;42.652;23.332;2022-07-05T12:06:21;94506.06;;;34.24;30.56
23176;BME280;19910;42.652;23.332;2022-07-05T12:09:01;94495.59;;;34.25;31.29
23176;BME280;19910;42.652;23.332;2022-07-05T12:11:28;94493.09;;;34.42;31.44
23176;BME280;19910;42.652;23.332;2022-07-05T12:14:20;94491.53;;;34.41;31.38
23176;BME280;19910;42.652;23.332;2022-07-05T12:16:47;94489.97;;;34.25;31.52
23176;BME280;19910;42.652;23.332;2022-07-05T12:19:23;94486.94;;;34.58;30.63
23176;BME280;19910;42.652;23.332;2022-07-05T12:21:52;94484.56;;;34.36;31.72
23176;BME280;19910;42.652;23.332;2022-07-05T12:24:19;94487.47;;;34.27;31.37
23176;BME280;19910;42.652;23.332;2022-07-05T12:26:50;94492.50;;;34.52;30.81
23176;BME280;19910;42.652;23.332;2022-07-05T12:29:17;94476.88;;;35.01;30.53
23176;BME280;19910;42.652;23.332;2022-07-05T12:32:03;94487.25;;;34.45;30.36
23176;BME280;19910;42.652;23.332;2022-07-05T12:34:34;94480.56;;;34.13;31.78
23176;BME280;19910;42.652;23.332;2022-07-05T12:37:04;94475.59;;;33.94;31.97
23176;BME280;19910;42.652;23.332;2022-07-05T12:39:31;94481.03;;;34.12;32.07
23176;BME280;19910;42.652;23.332;2022-07-05T12:41:58;94470.50;;;34.36;32.26
23176;BME280;19910;42.652;23.332;2022-07-05T12:44:25;94471.44;;;33.65;32.10
23176;BME280;19910;42.652;23.332;2022-07-05T12:46:52;94470.88;;;33.61;32.60
23176;BME280;19910;42.652;23.332;2022-07-05T12:49:31;94473.00;;;33.66;32.43
23176;BME280;19910;42.652;23.332;2022-07-05T12:52:03;94464.94;;;33.98;32.00
23176;BME280;19910;42.652;23.332;2022-07-05T12:54:30;94464.53;;;33.90;31.83
23176;BME280;19910;42.652;23.332;2022-07-05T12:57:15;94450.47;;;34.05;31.94
23176;BME280;19910;42.652;23.332;2022-07-05T13:00:00;94451.38;;;34.40;31.13
23176;BME280;19910;42.652;23.332;2022-07-05T13:02:36;94449.72;;;34.48;32.49